Time;durP1;ratioP1;P1;durP2;ratioP2;P2;SDS_P1;SDS_P2;PMS_P1;PMS_P2;Temp;Humidity;BMP_temperature;BMP_pressure;BME280_temperature;BME280_humidity;BME280_pressure;Samples;Min_cycle;Max_cycle;Signal;HPM_P1;HPM_P2
2023/07/17 00:00:48;;;;;;;2.22;1.13;;;17.80;99.90;;;;;;5050600;28;20033;-50
2023/07/17 00:03:13;;;;;;;4.75;1.15;;;17.80;99.90;;;;;;5049882;28;20095;-48
2023/07/17 00:05:39;;;;;;;3.35;1.23;;;17.70;99.90;;;;;;5050010;28;20039;-49
2023/07/17 00:08:06;;;;;;;2.63;1.00;;;17.70;99.90;;;;;;5050143;28;20098;-49
2023/07/17 00:10:31;;;;;;;2.72;1.10;;;17.70;99.90;;;;;;5050754;28;20041;-51
2023/07/17 00:12:57;;;;;;;5.43;1.45;;;17.70;99.90;;;;;;5050073;28;20448;-48
2023/07/17 00:15:22;;;;;;;2.85;0.85;;;17.60;99.90;;;;;;5050085;28;20041;-50
2023/07/17 00:17:48;;;;;;;4.35;1.15;;;17.60;99.90;;;;;;5046615;28;20034;-49
2023/07/17 00:20:14;;;;;;;2.17;1.13;;;17.60;99.90;;;;;;5050106;28;20033;-55
2023/07/17 00:22:40;;;;;;;3.63;1.23;;;17.60;99.90;;;;;;5049821;28;20040;-48
2023/07/17 00:25:06;;;;;;;4.15;1.25;;;17.60;99.90;;;;;;5050044;28;20513;-52
2023/07/17 00:27:35;;;;;;;4.95;1.00;;;17.50;99.90;;;;;;5050152;28;20068;-53
2023/07/17 00:30:00;;;;;;;4.13;1.17;;;17.50;99.90;;;;;;5050236;28;20056;-52
2023/07/17 00:32:26;;;;;;;2.08;1.13;;;17.50;99.90;;;;;;5050168;28;20040;-51
2023/07/17 00:34:52;;;;;;;6.07;1.73;;;17.50;99.90;;;;;;5044376;28;20040;-49
2023/07/17 00:37:17;;;;;;;3.35;1.35;;;17.50;99.90;;;;;;5049851;28;20045;-50
2023/07/17 00:39:43;;;;;;;3.88;1.52;;;17.50;99.90;;;;;;5049814;28;20124;-51
2023/07/17 00:42:08;;;;;;;9.05;1.70;;;17.50;99.90;;;;;;5049791;28;20037;-52
2023/07/17 00:44:35;;;;;;;3.88;1.52;;;17.50;99.90;;;;;;5048925;28;20047;-48
2023/07/17 00:47:02;;;;;;;3.10;1.40;;;17.50;99.90;;;;;;5065042;28;20037;-51
2023/07/17 00:49:29;;;;;;;2.70;1.33;;;17.50;99.90;;;;;;5049720;28;20037;-52
2023/07/17 00:51:56;;;;;;;6.63;1.80;;;17.50;99.90;;;;;;5050311;28;20090;-52
2023/07/17 00:54:22;;;;;;;4.50;1.55;;;17.50;99.90;;;;;;5049597;28;20452;-49
2023/07/17 00:56:47;;;;;;;6.15;1.38;;;17.50;99.90;;;;;;5049822;28;20040;-52
2023/07/17 00:59:14;;;;;;;6.70;1.77;;;17.50;99.90;;;;;;5049294;28;20036;-48
2023/07/17 01:01:41;;;;;;;6.32;1.33;;;17.50;99.90;;;;;;5049628;28;20506;-48
2023/07/17 01:04:07;;;;;;;5.03;1.75;;;17.40;99.90;;;;;;5048595;28;20037;-50
2023/07/17 01:06:38;;;;;;;4.38;1.65;;;17.40;99.90;;;;;;5049561;28;20044;-50
2023/07/17 01:09:04;;;;;;;3.70;1.60;;;17.40;99.90;;;;;;5049760;28;20033;-49
2023/07/17 01:11:30;;;;;;;;;;;17.40;99.90;;;;;;5048843;28;20043;-49
2023/07/17 01:13:55;;;;;;;4.90;1.58;;;17.40;99.90;;;;;;5049190;28;19921;-48
2023/07/17 01:16:21;;;;;;;5.65;1.98;;;17.40;99.90;;;;;;5049613;28;20045;-50
2023/07/17 01:18:47;;;;;;;5.43;1.73;;;17.30;99.90;;;;;;5048986;28;20048;-49
2023/07/17 01:21:17;;;;;;;8.77;2.60;;;17.30;99.90;;;;;;5049604;28;20456;-51
2023/07/17 01:23:44;;;;;;;4.20;1.88;;;17.30;99.90;;;;;;5049085;28;20248;-49
2023/07/17 01:26:14;;;;;;;6.28;2.08;;;17.30;99.90;;;;;;5048965;28;20037;-49
2023/07/17 01:28:41;;;;;;;6.05;1.20;;;17.30;99.90;;;;;;5049597;28;20041;-49
2023/07/17 01:31:07;;;;;;;;;;;17.40;99.90;;;;;;5049444;28;20068;-50
2023/07/17 01:33:33;;;;;;;6.72;1.65;;;17.30;99.90;;;;;;5049422;28;19974;-49
2023/07/17 01:36:00;;;;;;;3.67;1.27;;;17.30;99.90;;;;;;5051256;28;20535;-50
2023/07/17 01:38:26;;;;;;;3.45;1.13;;;17.30;99.90;;;;;;5053058;28;20059;-49
2023/07/17 01:40:52;;;;;;;4.38;1.60;;;17.30;99.90;;;;;;5052974;28;20542;-50
2023/07/17 01:43:18;;;;;;;5.50;1.33;;;17.30;99.90;;;;;;5052950;28;20083;-53
2023/07/17 01:45:44;;;;;;;7.03;1.58;;;17.30;99.90;;;;;;5052799;28;20073;-53
2023/07/17 01:48:10;;;;;;;3.47;1.42;;;17.30;99.90;;;;;;5053110;28;20395;-52
2023/07/17 01:50:35;;;;;;;5.63;1.15;;;17.30;99.90;;;;;;5052905;28;20093;-53
2023/07/17 01:53:01;;;;;;;4.32;1.50;;;17.20;99.90;;;;;;5053128;28;20124;-48
2023/07/17 01:55:27;;;;;;;3.13;1.30;;;17.20;99.90;;;;;;5052821;28;20076;-48
2023/07/17 01:57:56;;;;;;;5.65;1.88;;;17.20;99.90;;;;;;5052732;28;20036;-49
2023/07/17 02:00:22;;;;;;;4.20;1.60;;;17.20;99.90;;;;;;5051873;28;20041;-49
2023/07/17 02:02:47;;;;;;;5.15;1.77;;;17.10;99.90;;;;;;5052350;28;20039;-49
2023/07/17 02:05:13;;;;;;;3.95;1.13;;;17.10;99.90;;;;;;5051821;28;20216;-51
2023/07/17 02:07:38;;;;;;;7.00;1.85;;;17.10;99.90;;;;;;5051859;28;20036;-49
2023/07/17 02:10:04;;;;;;;6.45;1.27;;;17.10;99.90;;;;;;5052290;28;20072;-49
2023/07/17 02:12:30;;;;;;;9.82;2.45;;;17.10;99.90;;;;;;5052804;28;20509;-50
2023/07/17 02:14:55;;;;;;;3.58;0.90;;;17.00;99.90;;;;;;5050771;28;20047;-49
2023/07/17 02:17:21;;;;;;;6.80;1.63;;;17.00;99.90;;;;;;5052591;28;20128;-48
2023/07/17 02:19:46;;;;;;;4.75;1.35;;;17.00;99.90;;;;;;5051999;28;20041;-49
2023/07/17 02:22:12;;;;;;;4.05;1.50;;;17.00;99.90;;;;;;5052518;28;20040;-50
2023/07/17 02:24:38;;;;;;;5.97;1.33;;;16.90;99.90;;;;;;5051980;28;20041;-51
2023/07/17 02:27:04;;;;;;;3.78;1.45;;;16.90;99.90;;;;;;5052444;28;20037;-48
2023/07/17 02:29:29;;;;;;;5.45;1.95;;;16.90;99.90;;;;;;5052583;28;20039;-51
2023/07/17 02:31:55;;;;;;;6.30;1.70;;;16.90;99.90;;;;;;5052766;28;20032;-48
2023/07/17 02:34:20;;;;;;;7.22;2.25;;;16.90;99.90;;;;;;5052466;28;20037;-49
2023/07/17 02:36:46;;;;;;;6.85;2.33;;;16.90;99.90;;;;;;5052407;28;20041;-51
2023/07/17 02:39:12;;;;;;;5.57;2.45;;;16.80;99.90;;;;;;5052181;28;20033;-49
2023/07/17 02:41:37;;;;;;;4.45;2.15;;;16.80;99.90;;;;;;5051779;28;20465;-48
2023/07/17 02:44:03;;;;;;;4.32;1.92;;;16.70;99.90;;;;;;5051015;28;20111;-50
2023/07/17 02:46:28;;;;;;;5.03;1.95;;;16.70;99.90;;;;;;5051694;28;20086;-51
2023/07/17 02:48:54;;;;;;;7.10;2.47;;;16.70;99.90;;;;;;5052474;28;20060;-49
2023/07/17 02:51:19;;;;;;;3.00;2.25;;;16.70;99.90;;;;;;5052016;28;20425;-48
2023/07/17 02:53:45;;;;;;;4.93;2.13;;;16.60;99.90;;;;;;5051943;28;20041;-52
2023/07/17 02:56:11;;;;;;;4.40;2.45;;;16.50;99.90;;;;;;5051502;28;20051;-49
2023/07/17 02:58:43;;;;;;;4.22;3.03;;;16.50;99.90;;;;;;5051327;28;20071;-49
2023/07/17 03:01:10;;;;;;;5.80;2.65;;;16.30;99.90;;;;;;5051477;28;20041;-48
2023/07/17 03:03:36;;;;;;;5.65;3.20;;;16.30;99.90;;;;;;5051571;28;20045;-48
2023/07/17 03:06:01;;;;;;;6.80;3.70;;;16.10;99.90;;;;;;5049901;28;20044;-48
2023/07/17 03:08:27;;;;;;;6.03;3.28;;;16.10;99.90;;;;;;5051941;28;20029;-49
2023/07/17 03:10:53;;;;;;;6.93;2.47;;;16.10;99.90;;;;;;5051463;28;20075;-52
2023/07/17 03:13:20;;;;;;;5.65;2.67;;;16.00;99.90;;;;;;5051631;28;20045;-50
2023/07/17 03:15:47;;;;;;;3.42;3.10;;;16.00;99.90;;;;;;5051199;28;20056;-48
2023/07/17 03:18:13;;;;;;;6.28;2.78;;;16.00;99.90;;;;;;5051252;28;20549;-50
2023/07/17 03:20:47;;;;;;;3.40;3.00;;;15.90;99.90;;;;;;5051420;28;20124;-53
2023/07/17 03:23:13;;;;;;;7.40;2.95;;;15.90;99.90;;;;;;5045539;28;20071;-51
2023/07/17 03:25:41;;;;;;;6.53;2.40;;;15.90;99.90;;;;;;5050537;28;20119;-52
2023/07/17 03:28:07;;;;;;;6.25;2.65;;;15.90;99.90;;;;;;5051303;28;20037;-51
2023/07/17 03:30:32;;;;;;;10.77;3.17;;;15.80;99.90;;;;;;5051556;28;20120;-48
2023/07/17 03:32:58;;;;;;;6.38;2.28;;;15.80;99.90;;;;;;5051408;28;20501;-49
2023/07/17 03:35:23;;;;;;;7.60;3.40;;;15.80;99.90;;;;;;5051264;28;20036;-49
2023/07/17 03:37:49;;;;;;;4.63;2.90;;;15.80;99.90;;;;;;5050965;28;20029;-52
2023/07/17 03:40:15;;;;;;;8.88;3.45;;;15.70;99.90;;;;;;5050680;28;20056;-48
2023/07/17 03:42:40;;;;;;;5.22;3.08;;;15.70;99.90;;;;;;5049300;28;20131;-48
2023/07/17 03:45:06;;;;;;;8.10;3.22;;;15.60;99.90;;;;;;5050777;28;20044;-48
2023/07/17 03:47:32;;;;;;;5.65;3.33;;;15.60;99.90;;;;;;5050666;28;20037;-49
2023/07/17 03:49:58;;;;;;;4.57;2.33;;;15.60;99.90;;;;;;5051542;28;20033;-52
2023/07/17 03:52:23;;;;;;;8.05;2.72;;;15.60;99.90;;;;;;5050797;28;20136;-51
2023/07/17 03:54:49;;;;;;;5.78;2.60;;;15.60;99.90;;;;;;5050347;28;20037;-50
2023/07/17 03:57:14;;;;;;;10.70;3.35;;;15.50;99.90;;;;;;5048856;28;20057;-49
2023/07/17 03:59:48;;;;;;;7.18;3.92;;;15.50;99.90;;;;;;5050060;28;20045;-49
2023/07/17 04:02:14;;;;;;;4.97;2.42;;;15.40;99.90;;;;;;5050300;28;20040;-48
2023/07/17 04:04:40;;;;;;;7.47;2.15;;;15.40;99.90;;;;;;5050140;28;20391;-49
2023/07/17 04:07:05;;;;;;;4.78;3.05;;;15.40;99.90;;;;;;5050334;28;20037;-49
2023/07/17 04:09:31;;;;;;;6.68;2.58;;;15.40;99.90;;;;;;5050246;28;20478;-54
2023/07/17 04:11:57;;;;;;;6.15;2.60;;;15.40;99.90;;;;;;5050678;28;20063;-48
2023/07/17 04:14:22;;;;;;;9.05;2.83;;;15.40;99.90;;;;;;5050440;28;20486;-48
2023/07/17 04:16:48;;;;;;;6.03;2.95;;;15.40;99.90;;;;;;5050182;28;20044;-53
2023/07/17 04:19:13;;;;;;;11.35;3.60;;;15.40;99.90;;;;;;5050269;28;20039;-50
2023/07/17 04:21:39;;;;;;;8.13;2.95;;;15.40;99.90;;;;;;5050129;28;20041;-48
2023/07/17 04:24:04;;;;;;;8.88;3.05;;;15.40;99.90;;;;;;5049348;28;20498;-50
2023/07/17 04:26:30;;;;;;;8.15;3.83;;;15.40;99.90;;;;;;5050281;28;20037;-50
2023/07/17 04:28:56;;;;;;;6.82;3.15;;;15.40;99.90;;;;;;5049930;28;20042;-50
2023/07/17 04:31:21;;;;;;;5.80;3.15;;;15.40;99.90;;;;;;5050240;28;20044;-48
2023/07/17 04:33:47;;;;;;;8.40;2.95;;;15.40;99.90;;;;;;5049807;28;20124;-48
2023/07/17 04:36:13;;;;;;;7.25;2.90;;;15.30;99.90;;;;;;5050423;28;20055;-48
2023/07/17 04:38:39;;;;;;;5.22;2.92;;;15.40;99.90;;;;;;5049187;28;20112;-49
2023/07/17 04:41:05;;;;;;;6.55;3.80;;;15.40;99.90;;;;;;5050118;28;20043;-52
2023/07/17 04:43:30;;;;;;;;;;;15.40;99.90;;;;;;5049871;28;20485;-51
2023/07/17 04:45:56;;;;;;;7.05;3.25;;;15.40;99.90;;;;;;5049855;28;19924;-49
2023/07/17 04:48:21;;;;;;;6.28;3.60;;;15.40;99.90;;;;;;5049875;28;20116;-49
2023/07/17 04:50:47;;;;;;;12.13;4.05;;;15.40;99.90;;;;;;5050422;28;20037;-49
2023/07/17 04:53:13;;;;;;;10.10;4.20;;;15.50;99.90;;;;;;5049227;28;20095;-48
2023/07/17 04:55:38;;;;;;;9.30;3.60;;;15.50;99.90;;;;;;5049795;28;20037;-50
2023/07/17 04:58:04;;;;;;;11.13;4.18;;;15.50;99.90;;;;;;5049406;28;20044;-49
2023/07/17 05:00:29;;;;;;;9.65;4.15;;;15.50;99.90;;;;;;5049919;28;20144;-49
2023/07/17 05:02:56;;;;;;;4.78;3.35;;;15.60;99.90;;;;;;5047667;28;20045;-48
2023/07/17 05:05:22;;;;;;;7.07;4.30;;;15.60;99.90;;;;;;5049055;28;20094;-52
2023/07/17 05:07:49;;;;;;;10.32;4.15;;;15.60;99.90;;;;;;5048601;28;20024;-51
2023/07/17 05:10:15;;;;;;;8.02;3.97;;;15.70;99.90;;;;;;5049929;28;20036;-49
2023/07/17 05:12:41;;;;;;;8.10;3.40;;;15.70;99.90;;;;;;5049714;28;20037;-52
2023/07/17 05:15:07;;;;;;;17.20;4.30;;;15.70;99.90;;;;;;5049373;28;20056;-52
2023/07/17 05:17:32;;;;;;;11.10;3.70;;;15.80;99.90;;;;;;5060371;28;20048;-53
2023/07/17 05:19:58;;;;;;;8.15;3.72;;;15.90;99.90;;;;;;5049204;28;20453;-50
2023/07/17 05:22:26;;;;;;;6.32;3.15;;;15.90;99.90;;;;;;5049104;28;20037;-48
2023/07/17 05:24:51;;;;;;;9.10;3.65;;;16.00;99.90;;;;;;5049411;28;20486;-49
2023/07/17 05:27:17;;;;;;;6.53;3.25;;;16.00;99.90;;;;;;5049445;28;20120;-49
2023/07/17 05:29:43;;;;;;;7.15;3.30;;;16.10;99.90;;;;;;5049120;28;20541;-50
2023/07/17 05:32:08;;;;;;;9.15;3.28;;;16.10;99.90;;;;;;5049423;28;20220;-48
2023/07/17 05:34:34;;;;;;;7.80;3.50;;;16.20;99.90;;;;;;5048942;28;20163;-49
2023/07/17 05:36:59;;;;;;;10.00;2.97;;;16.30;99.90;;;;;;5047255;28;20040;-49
2023/07/17 05:39:27;;;;;;;6.32;2.75;;;16.30;99.90;;;;;;5048263;28;20052;-54
2023/07/17 05:41:52;;;;;;;11.93;4.00;;;16.40;99.90;;;;;;5049158;28;20037;-48
2023/07/17 05:44:18;;;;;;;10.27;3.58;;;16.40;99.90;;;;;;5049528;28;20506;-52
2023/07/17 05:46:43;;;;;;;6.53;3.58;;;16.50;99.90;;;;;;5044542;28;20465;-52
2023/07/17 05:49:09;;;;;;;14.85;3.53;;;16.50;99.90;;;;;;5043458;28;20044;-51
2023/07/17 05:51:34;;;;;;;10.25;4.35;;;16.50;99.90;;;;;;5040574;28;20076;-48
2023/07/17 05:54:00;;;;;;;7.57;4.03;;;16.60;99.90;;;;;;5044038;28;20040;-49
2023/07/17 05:56:26;;;;;;;11.30;3.80;;;16.70;99.90;;;;;;5041244;28;20466;-49
2023/07/17 05:58:52;;;;;;;12.05;3.63;;;16.70;99.90;;;;;;5048064;28;20041;-52
2023/07/17 06:01:17;;;;;;;13.13;4.85;;;16.80;99.90;;;;;;5049594;28;20559;-51
2023/07/17 06:03:43;;;;;;;9.25;3.67;;;16.80;99.90;;;;;;5045354;28;20041;-48
2023/07/17 06:06:08;;;;;;;9.88;3.75;;;16.90;99.90;;;;;;5040945;28;20494;-51
2023/07/17 06:08:34;;;;;;;13.98;4.93;;;16.90;99.90;;;;;;5044345;28;20099;-52
2023/07/17 06:10:59;;;;;;;21.33;4.50;;;17.00;99.90;;;;;;5048585;28;20040;-48
2023/07/17 06:13:25;;;;;;;11.43;3.67;;;17.10;99.90;;;;;;5037210;28;20103;-50
2023/07/17 06:15:51;;;;;;;9.48;4.53;;;17.10;99.90;;;;;;5046395;28;20123;-48
2023/07/17 06:18:16;;;;;;;10.13;3.53;;;17.10;99.90;;;;;;5037607;28;20033;-48
2023/07/17 06:20:42;;;;;;;12.95;4.10;;;17.10;99.90;;;;;;5038797;28;20562;-49
2023/07/17 06:23:08;;;;;;;9.93;4.32;;;17.20;99.90;;;;;;5044361;28;20491;-51
2023/07/17 06:25:34;;;;;;;;;;;17.20;99.90;;;;;;5047460;28;20056;-54
2023/07/17 06:28:00;;;;;;;14.05;4.35;;;17.20;99.90;;;;;;5039110;28;19917;-52
2023/07/17 06:30:25;;;;;;;12.20;4.78;;;17.30;99.90;;;;;;5048685;28;20048;-48
2023/07/17 06:32:51;;;;;;;9.27;3.95;;;17.30;99.90;;;;;;5052241;28;20029;-49
2023/07/17 06:35:16;;;;;;;8.05;3.88;;;17.30;99.90;;;;;;5050936;28;20478;-49
2023/07/17 06:37:42;;;;;;;10.45;4.22;;;17.40;99.90;;;;;;5052827;28;20059;-51
2023/07/17 06:40:10;;;;;;;11.95;4.95;;;17.40;99.90;;;;;;5052391;28;20182;-48
2023/07/17 06:42:36;;;;;;;18.60;4.93;;;17.50;99.90;;;;;;5049668;28;21346;-51
2023/07/17 06:45:02;;;;;;;8.85;4.65;;;17.50;99.90;;;;;;5052125;28;20044;-48
2023/07/17 06:47:28;;;;;;;11.40;4.60;;;17.60;99.90;;;;;;5052431;28;20060;-48
2023/07/17 06:49:54;;;;;;;13.75;5.85;;;17.70;99.90;;;;;;5052246;28;20494;-48
2023/07/17 06:52:19;;;;;;;9.15;5.13;;;17.70;99.90;;;;;;5052583;28;20398;-48
2023/07/17 06:54:46;;;;;;;10.90;5.22;;;17.70;99.90;;;;;;5052106;28;20049;-48
2023/07/17 06:57:11;;;;;;;14.15;5.05;;;17.70;99.90;;;;;;5052143;28;20525;-49
2023/07/17 06:59:37;;;;;;;15.23;4.85;;;17.80;99.90;;;;;;5052360;28;20037;-49
2023/07/17 07:02:02;;;;;;;11.65;5.47;;;17.80;99.90;;;;;;5052128;28;20107;-52
2023/07/17 07:04:28;;;;;;;9.07;5.18;;;17.90;99.90;;;;;;5051333;28;20080;-48
2023/07/17 07:06:54;;;;;;;12.60;5.03;;;17.90;99.90;;;;;;5052312;28;20044;-48
2023/07/17 07:09:19;;;;;;;16.60;5.47;;;17.80;99.90;;;;;;5052312;28;20490;-51
2023/07/17 07:11:45;;;;;;;11.50;4.57;;;17.90;99.90;;;;;;5052221;28;20040;-50
2023/07/17 07:14:10;;;;;;;14.35;5.03;;;18.00;99.90;;;;;;5051470;28;20044;-48
2023/07/17 07:16:36;;;;;;;7.90;4.15;;;18.00;99.90;;;;;;5047049;28;20110;-49
2023/07/17 07:19:01;;;;;;;17.27;6.15;;;17.90;99.90;;;;;;5041735;28;20491;-48
2023/07/17 07:21:27;;;;;;;17.58;6.68;;;17.90;99.90;;;;;;5044981;28;20409;-52
2023/07/17 07:23:53;;;;;;;12.10;5.25;;;17.80;99.90;;;;;;5038185;28;20120;-49
2023/07/17 07:26:19;;;;;;;12.77;4.93;;;17.90;99.90;;;;;;5039684;28;20037;-49
2023/07/17 07:28:44;;;;;;;11.55;5.05;;;17.90;99.90;;;;;;5042447;28;20563;-49
2023/07/17 07:31:10;;;;;;;15.20;5.78;;;18.00;99.90;;;;;;5044490;28;20029;-50
2023/07/17 07:33:36;;;;;;;13.65;5.72;;;18.00;99.90;;;;;;5039832;28;20041;-50
2023/07/17 07:36:02;;;;;;;10.88;4.82;;;18.00;99.90;;;;;;5043967;28;20193;-49
2023/07/17 07:38:28;;;;;;;11.90;5.05;;;18.10;99.90;;;;;;5040970;28;20052;-48
2023/07/17 07:40:53;;;;;;;11.05;4.78;;;18.10;99.90;;;;;;5040543;28;20037;-49
2023/07/17 07:43:19;;;;;;;13.85;5.03;;;18.10;99.90;;;;;;5038836;28;20037;-52
2023/07/17 07:45:45;;;;;;;12.70;4.93;;;18.20;99.90;;;;;;5035486;28;20040;-48
2023/07/17 07:48:10;;;;;;;15.73;5.07;;;18.20;99.90;;;;;;5036748;28;20410;-51
2023/07/17 07:50:36;;;;;;;15.82;4.78;;;18.20;99.90;;;;;;5037850;28;20038;-52
2023/07/17 07:53:02;;;;;;;10.40;4.35;;;18.30;99.90;;;;;;5054458;28;20056;-51
2023/07/17 07:55:27;;;;;;;11.10;4.60;;;18.30;99.90;;;;;;5039895;28;20032;-52
2023/07/17 07:57:54;;;;;;;7.95;4.55;;;18.40;99.90;;;;;;5042508;28;20069;-54
2023/07/17 08:00:19;;;;;;;11.77;4.15;;;18.40;99.90;;;;;;5042546;28;20029;-48
2023/07/17 08:02:45;;;;;;;7.20;4.03;;;18.40;99.90;;;;;;5040364;28;20040;-49
2023/07/17 08:05:10;;;;;;;8.82;4.90;;;18.50;99.90;;;;;;5042811;28;20430;-51
2023/07/17 08:07:36;;;;;;;12.45;4.75;;;18.50;99.90;;;;;;5040451;28;20128;-53
2023/07/17 08:10:02;;;;;;;14.40;4.20;;;18.60;99.90;;;;;;5038948;28;21002;-51
2023/07/17 08:12:29;;;;;;;12.55;5.05;;;18.60;99.90;;;;;;5040658;28;20040;-49
2023/07/17 08:14:55;;;;;;;8.50;4.57;;;18.70;99.90;;;;;;5038925;28;20041;-52
2023/07/17 08:17:20;;;;;;;9.35;4.28;;;18.80;99.90;;;;;;5037399;28;20120;-54
2023/07/17 08:19:46;;;;;;;13.20;4.57;;;18.80;99.90;;;;;;5040794;28;20103;-50
2023/07/17 08:22:12;;;;;;;9.55;3.90;;;18.90;99.90;;;;;;5042300;28;20045;-52
2023/07/17 08:24:38;;;;;;;9.20;3.90;;;19.00;99.90;;;;;;5044773;28;20076;-57
2023/07/17 08:27:03;;;;;;;;;;;18.90;99.90;;;;;;5039703;28;20498;-52
2023/07/17 08:29:29;;;;;;;9.68;3.47;;;18.90;99.90;;;;;;5038254;28;19962;-49
2023/07/17 08:31:54;;;;;;;10.15;4.45;;;18.90;99.90;;;;;;5033070;28;20048;-54
2023/07/17 08:34:23;;;;;;;;;;;18.90;99.90;;;;;;5041256;28;20041;-52
2023/07/17 08:36:49;;;;;;;9.68;3.70;;;18.90;99.90;;;;;;5036552;28;19917;-50
2023/07/17 08:39:14;;;;;;;15.23;3.85;;;18.80;99.90;;;;;;5038360;28;20079;-50
2023/07/17 08:41:42;;;;;;;9.20;4.32;;;19.00;99.90;;;;;;5039380;28;20379;-52
2023/07/17 08:44:08;;;;;;;10.00;4.22;;;19.00;99.90;;;;;;5036006;28;20532;-49
2023/07/17 08:46:34;;;;;;;11.85;3.83;;;19.00;99.90;;;;;;5035234;28;20041;-55
2023/07/17 08:49:01;;;;;;;9.48;3.67;;;19.10;99.90;;;;;;5039520;28;20035;-50
2023/07/17 08:51:28;;;;;;;8.52;3.50;;;19.20;99.90;;;;;;5038602;28;20470;-49
2023/07/17 08:53:55;;;;;;;13.07;4.63;;;19.20;99.90;;;;;;5039962;28;20060;-53
2023/07/17 08:56:21;;;;;;;8.25;3.63;;;19.20;99.90;;;;;;5038076;28;20482;-54
2023/07/17 08:58:50;;;;;;;13.55;4.82;;;19.30;99.90;;;;;;5035759;28;20124;-53
2023/07/17 09:01:16;;;;;;;10.60;4.20;;;19.20;99.90;;;;;;5039357;28;20045;-52
2023/07/17 09:03:42;;;;;;;8.75;3.40;;;19.30;99.90;;;;;;5041151;28;20085;-50
2023/07/17 09:06:13;;;;;;;8.75;3.10;;;19.40;99.90;;;;;;5037521;28;20070;-53
2023/07/17 09:08:39;;;;;;;11.32;3.97;;;19.40;99.90;;;;;;5033519;28;20442;-52
2023/07/17 09:11:06;;;;;;;8.40;3.08;;;19.50;99.90;;;;;;5034245;28;20076;-48
2023/07/17 09:13:39;;;;;;;9.10;3.80;;;19.50;99.90;;;;;;5030457;28;20045;-54
2023/07/17 09:16:31;;;;;;;8.95;3.58;;;19.50;99.90;;;;;;5034401;28;20055;-50
2023/07/17 09:18:57;;;;;;;8.65;3.35;;;19.50;99.90;;;;;;5036563;28;20049;-52
2023/07/17 09:21:24;;;;;;;9.23;3.78;;;19.50;99.90;;;;;;5032803;28;20051;-51
2023/07/17 09:23:55;;;;;;;8.77;3.65;;;19.50;99.90;;;;;;5035372;28;20428;-52
2023/07/17 09:26:25;;;;;;;10.63;3.30;;;19.50;99.90;;;;;;5034258;28;20068;-53
2023/07/17 09:28:54;;;;;;;9.80;3.50;;;19.80;99.90;;;;;;5032690;28;20033;-56
2023/07/17 09:31:25;;;;;;;9.02;3.40;;;19.90;99.90;;;;;;5029840;28;20037;-53
2023/07/17 09:33:51;;;;;;;7.28;3.45;;;19.90;99.90;;;;;;5035812;28;20098;-54
2023/07/17 09:36:17;;;;;;;7.70;3.45;;;19.80;99.90;;;;;;5037435;28;20446;-51
2023/07/17 09:38:42;;;;;;;11.80;4.35;;;19.80;99.90;;;;;;5038313;28;20116;-50
2023/07/17 09:41:18;;;;;;;;;;;19.60;99.90;;;;;;5038066;28;20375;-53
2023/07/17 09:43:51;;;;;;;14.25;4.95;;;19.50;99.90;;;;;;5037102;28;20378;-54
2023/07/17 09:46:17;;;;;;;10.93;3.67;;;19.40;99.90;;;;;;5038678;28;20036;-52
2023/07/17 09:48:43;;;;;;;15.98;4.63;;;19.20;99.90;;;;;;5036153;28;20029;-51
2023/07/17 09:51:09;;;;;;;10.35;3.72;;;18.90;99.90;;;;;;5036504;28;20036;-50
2023/07/17 09:53:36;;;;;;;11.05;3.85;;;18.60;99.90;;;;;;5040821;28;20053;-51
2023/07/17 09:56:03;;;;;;;12.10;3.97;;;18.40;99.90;;;;;;5037949;28;20032;-54
2023/07/17 09:58:31;;;;;;;6.63;2.97;;;18.30;99.90;;;;;;5042731;28;20051;-51
2023/07/17 10:00:57;;;;;;;9.25;3.67;;;18.20;99.90;;;;;;5041204;28;20041;-51
2023/07/17 10:03:23;;;;;;;9.90;3.72;;;18.10;99.90;;;;;;5040701;28;20421;-50
2023/07/17 10:05:51;;;;;;;9.95;4.65;;;18.00;99.90;;;;;;5043330;28;20043;-54
2023/07/17 10:08:18;;;;;;;5.80;2.60;;;17.90;99.90;;;;;;5040998;28;20037;-51
2023/07/17 10:10:43;;;;;;;6.05;3.78;;;17.80;99.90;;;;;;5042768;28;20078;-53
2023/07/17 10:13:10;;;;;;;8.38;3.15;;;17.80;99.90;;;;;;5042599;28;20033;-52
2023/07/17 10:15:37;;;;;;;7.03;3.55;;;17.90;99.90;;;;;;5043354;28;20080;-51
2023/07/17 10:18:08;;;;;;;8.50;3.45;;;18.00;99.90;;;;;;5042513;28;20037;-53
2023/07/17 10:20:33;;;;;;;9.10;3.70;;;18.20;99.90;;;;;;5044730;28;20056;-51
2023/07/17 10:22:59;;;;;;;10.55;3.92;;;18.30;99.90;;;;;;5038792;28;20025;-52
2023/07/17 10:25:28;;;;;;;8.35;3.70;;;18.50;99.90;;;;;;5038385;28;20041;-50
2023/07/17 10:28:02;;;;;;;10.43;3.28;;;18.70;99.90;;;;;;5039790;28;20036;-51
2023/07/17 10:30:28;;;;;;;9.90;4.22;;;18.80;99.90;;;;;;5037502;28;20038;-53
2023/07/17 10:33:05;;;;;;;7.90;3.97;;;19.00;99.90;;;;;;5041017;28;20379;-51
2023/07/17 10:35:52;;;;;;;7.07;3.13;;;19.30;99.90;;;;;;5036282;28;20045;-53
2023/07/17 10:38:29;;;;;;;7.32;3.42;;;19.40;99.90;;;;;;5036128;28;20040;-51
2023/07/17 10:41:02;;;;;;;10.07;3.20;;;19.50;99.90;;;;;;5042696;28;20048;-51
2023/07/17 10:43:28;;;;;;;6.80;2.67;;;19.60;99.90;;;;;;5039887;28;20049;-51
2023/07/17 10:45:53;;;;;;;7.80;3.05;;;19.70;99.90;;;;;;5041522;28;20041;-51
2023/07/17 10:48:23;;;;;;;;;;;19.60;99.90;;;;;;5044529;28;20332;-51
2023/07/17 10:50:52;;;;;;;7.07;1.90;;;19.50;99.90;;;;;;5040640;28;19917;-52
2023/07/17 10:53:18;;;;;;;6.43;2.03;;;19.30;99.90;;;;;;5046514;28;20032;-50
2023/07/17 10:55:46;;;;;;;;;;;19.20;99.90;;;;;;5040590;28;20064;-53
2023/07/17 10:58:12;;;;;;;7.15;1.88;;;19.10;99.90;;;;;;5039929;28;19921;-50
2023/07/17 11:00:42;;;;;;;2.90;1.52;;;19.10;99.90;;;;;;5040450;28;20545;-50
2023/07/17 11:03:15;;;;;;;4.90;2.67;;;19.10;99.90;;;;;;5042824;28;20044;-50
2023/07/17 11:05:42;;;;;;;4.88;2.22;;;19.30;99.90;;;;;;5037268;28;20059;-55
2023/07/17 11:08:08;;;;;;;6.82;1.83;;;19.60;99.90;;;;;;5050272;28;20037;-52
2023/07/17 11:10:35;;;;;;;4.40;2.08;;;19.90;99.90;;;;;;5051668;28;20375;-51
2023/07/17 11:13:03;;;;;;;7.57;1.77;;;20.00;99.90;;;;;;5049704;28;20055;-52
2023/07/17 11:15:34;;;;;;;5.38;1.73;;;20.10;99.90;;;;;;5046803;28;20041;-53
2023/07/17 11:18:01;;;;;;;5.32;1.75;;;20.00;99.90;;;;;;5042324;28;20079;-53
2023/07/17 11:20:28;;;;;;;7.13;1.95;;;19.90;99.90;;;;;;5052064;28;20068;-55
2023/07/17 11:22:53;;;;;;;5.50;2.10;;;19.80;99.90;;;;;;5051370;28;20037;-53
2023/07/17 11:25:20;;;;;;;6.60;1.98;;;19.90;99.90;;;;;;5051890;28;20402;-50
2023/07/17 11:27:46;;;;;;;4.22;1.63;;;20.20;99.90;;;;;;5051809;28;20563;-50
2023/07/17 11:30:14;;;;;;;;;;;20.40;99.90;;;;;;5052382;28;20041;-51
2023/07/17 11:32:40;;;;;;;5.45;1.77;;;20.40;99.90;;;;;;5051732;28;19923;-52
2023/07/17 11:35:08;;;;;;;5.40;1.35;;;20.40;99.90;;;;;;5051472;28;20041;-51
2023/07/17 11:37:37;;;;;;;3.53;1.25;;;20.50;99.90;;;;;;5051138;28;20045;-51
2023/07/17 11:40:09;;;;;;;5.97;1.15;;;20.70;99.90;;;;;;5050251;28;20056;-52
2023/07/17 11:42:51;;;;;;;8.10;1.63;;;20.90;99.90;;;;;;5051642;28;20418;-51
2023/07/17 11:45:19;;;;;;;6.22;1.38;;;21.00;99.90;;;;;;5050017;28;20048;-54
2023/07/17 11:47:45;;;;;;;3.63;2.22;;;21.00;99.90;;;;;;5049726;28;20068;-54
2023/07/17 11:50:10;;;;;;;;;;;20.90;99.50;;;;;;5045680;28;20122;-53
2023/07/17 11:52:36;;;;;;;4.15;1.70;;;20.70;99.50;;;;;;5044823;28;19991;-50
2023/07/17 11:55:01;;;;;;;;;;;20.70;99.60;;;;;;5042380;28;20044;-51
2023/07/17 11:57:28;;;;;;;4.30;1.40;;;20.50;99.20;;;;;;5041909;28;19943;-54
2023/07/17 12:00:07;;;;;;;;;;;20.40;99.50;;;;;;5042843;28;20116;-53
2023/07/17 12:02:32;;;;;;;4.10;1.35;;;20.40;99.40;;;;;;5037766;28;20360;-51
2023/07/17 12:05:01;;;;;;;4.90;1.25;;;20.30;99.90;;;;;;5043414;28;20043;-51
2023/07/17 12:07:27;;;;;;;5.35;1.45;;;20.20;99.60;;;;;;5045737;28;20198;-50
2023/07/17 12:09:52;;;;;;;9.32;1.35;;;20.20;99.70;;;;;;5042482;28;20551;-51
2023/07/17 12:12:18;;;;;;;;;;;20.20;99.70;;;;;;5044379;28;20429;-56
2023/07/17 12:14:43;;;;;;;7.72;1.92;;;20.10;99.60;;;;;;5038620;28;19921;-51
2023/07/17 12:17:09;;;;;;;;;;;20.10;99.90;;;;;;5036182;28;20124;-50
2023/07/17 12:19:34;;;;;;;4.53;1.67;;;20.10;99.20;;;;;;5037078;28;19925;-53
2023/07/17 12:22:00;;;;;;;;;;;19.90;99.90;;;;;;5044352;28;20088;-51
2023/07/17 12:24:26;;;;;;;4.80;1.98;;;19.70;99.90;;;;;;5037042;28;20259;-51
2023/07/17 12:26:52;;;;;;;6.07;2.35;;;19.40;99.90;;;;;;5041142;28;20495;-53
2023/07/17 12:29:17;;;;;;;4.82;2.38;;;19.20;99.90;;;;;;5035453;28;20072;-52
2023/07/17 12:31:43;;;;;;;;;;;19.00;99.90;;;;;;5041308;28;20044;-51
2023/07/17 12:34:09;;;;;;;4.90;2.00;;;18.90;99.90;;;;;;5059932;28;19940;-54
2023/07/17 12:36:35;;;;;;;3.03;1.70;;;18.80;99.90;;;;;;5065787;28;20512;-50
2023/07/17 12:39:12;;;;;;;8.27;2.03;;;18.70;99.90;;;;;;5044459;28;20063;-50
2023/07/17 12:41:38;;;;;;;5.20;1.73;;;18.60;99.90;;;;;;5046165;28;20452;-52
2023/07/17 12:44:04;;;;;;;9.10;2.30;;;18.60;99.90;;;;;;5042758;28;20040;-51